createdAt,value
2022-12-17T00:01:37.977Z,52
2022-12-17T00:04:10.755Z,59
2022-12-17T00:06:42.870Z,76
2022-12-17T00:09:13.867Z,80
2022-12-17T00:11:44.641Z,70
2022-12-17T00:14:15.420Z,69
2022-12-17T00:16:46.060Z,74
2022-12-17T00:19:16.829Z,72
2022-12-17T00:21:48.212Z,68
2022-12-17T00:24:18.495Z,68
2022-12-17T00:26:50.440Z,76
2022-12-17T00:29:20.125Z,78
2022-12-17T00:31:51.298Z,88
2022-12-17T00:34:23.763Z,76
2022-12-17T00:36:53.950Z,76
2022-12-17T00:39:24.320Z,81
2022-12-17T00:41:54.894Z,78
2022-12-17T00:44:25.346Z,76
2022-12-17T00:46:56.106Z,74
2022-12-17T00:49:26.746Z,77
2022-12-17T00:51:58.868Z,74
2022-12-17T00:54:30.841Z,72
2022-12-17T00:57:01.449Z,75
2022-12-17T00:59:33.916Z,73
2022-12-17T01:02:04.634Z,74
2022-12-17T01:04:36.144Z,72
2022-12-17T01:07:06.745Z,80
2022-12-17T01:09:38.433Z,74
2022-12-17T01:12:08.636Z,80
2022-12-17T01:14:39.352Z,79
2022-12-17T01:17:10.214Z,80
2022-12-17T01:19:41.515Z,76
2022-12-17T01:22:12.480Z,77
2022-12-17T01:24:44.793Z,76
2022-12-17T01:27:15.989Z,77
2022-12-17T01:29:48.318Z,76
2022-12-17T01:32:20.711Z,74
2022-12-17T01:34:52.477Z,80
2022-12-17T01:37:23.502Z,76
2022-12-17T01:39:54.971Z,77
2022-12-17T01:42:25.894Z,70
2022-12-17T01:44:56.275Z,81
2022-12-17T01:47:27.268Z,76
2022-12-17T01:49:58.641Z,80
2022-12-17T01:52:29.628Z,76
2022-12-17T01:54:59.901Z,64
2022-12-17T01:57:31.264Z,60
2022-12-17T02:00:03.078Z,59
2022-12-17T02:02:34.126Z,57
2022-12-17T02:05:05.061Z,53
2022-12-17T02:07:36.123Z,65
2022-12-17T02:10:06.964Z,58
2022-12-17T02:12:38.081Z,53
2022-12-17T02:15:09.048Z,54
2022-12-17T02:17:40.211Z,60
2022-12-17T02:20:11.111Z,56
2022-12-17T02:22:42.417Z,61
2022-12-17T02:25:12.979Z,63
2022-12-17T02:27:44.238Z,55
2022-12-17T02:30:14.682Z,62
2022-12-17T02:32:47.890Z,60
2022-12-17T02:35:18.751Z,60
2022-12-17T02:37:49.601Z,72
2022-12-17T02:40:20.300Z,64
2022-12-17T02:42:51.098Z,61
2022-12-17T02:45:22.056Z,57
2022-12-17T02:47:53.218Z,54
2022-12-17T02:50:24.528Z,55
2022-12-17T02:52:56.272Z,56
2022-12-17T02:55:27.780Z,54
2022-12-17T02:57:59.060Z,56
2022-12-17T03:00:30.046Z,55
2022-12-17T03:03:00.857Z,52
2022-12-17T03:05:48.278Z,48
2022-12-17T03:08:04.500Z,52
2022-12-17T03:10:35.500Z,53
2022-12-17T03:13:06.667Z,60
2022-12-17T03:15:38.070Z,49
2022-12-17T03:18:09.543Z,47
2022-12-17T03:20:40.657Z,44
2022-12-17T03:23:11.207Z,50
2022-12-17T03:25:42.191Z,52
2022-12-17T03:28:14.724Z,45
2022-12-17T03:30:49.037Z,36
2022-12-17T03:33:17.623Z,31
2022-12-17T03:35:48.798Z,32
2022-12-17T03:38:18.550Z,33
2022-12-17T03:40:49.472Z,32
2022-12-17T03:43:20.690Z,37
2022-12-17T03:45:50.745Z,36
2022-12-17T03:48:21.562Z,46
2022-12-17T03:50:52.512Z,43
2022-12-17T03:53:23.302Z,48
2022-12-17T03:55:54.702Z,52
2022-12-17T03:58:26.270Z,55
2022-12-17T04:00:56.830Z,60
2022-12-17T04:03:28.800Z,63
2022-12-17T04:05:59.829Z,60
2022-12-17T04:08:30.990Z,60
2022-12-17T04:11:00.148Z,56
2022-12-17T04:13:34.672Z,58
2022-12-17T04:16:03.931Z,56
2022-12-17T04:18:35.939Z,54
2022-12-17T04:21:08.745Z,55
2022-12-17T04:23:40.888Z,51
2022-12-17T04:26:13.023Z,56
2022-12-17T04:28:44.324Z,63
2022-12-17T04:31:15.400Z,70
2022-12-17T04:33:46.334Z,67
2022-12-17T04:36:18.030Z,60
2022-12-17T04:38:49.216Z,63
2022-12-17T04:41:20.277Z,56
2022-12-17T04:43:52.628Z,52
2022-12-17T04:46:23.223Z,52
2022-12-17T04:48:54.942Z,55
2022-12-17T04:51:25.609Z,54
2022-12-17T04:53:58.131Z,47
2022-12-17T04:56:29.006Z,51
2022-12-17T04:58:59.508Z,52
2022-12-17T05:01:30.390Z,46
2022-12-17T05:04:01.376Z,38
2022-12-17T05:06:31.982Z,42
2022-12-17T05:09:02.692Z,36
2022-12-17T05:11:34.662Z,31
2022-12-17T05:14:05.897Z,35
2022-12-17T05:16:37.108Z,26
2022-12-17T05:19:08.824Z,31
2022-12-17T05:21:39.524Z,27
2022-12-17T05:24:10.346Z,35
2022-12-17T05:26:41.830Z,28
2022-12-17T05:29:15.926Z,29
2022-12-17T05:31:44.944Z,31
2022-12-17T05:34:16.088Z,31
2022-12-17T05:36:47.148Z,36
2022-12-17T05:39:19.962Z,33
2022-12-17T05:41:51.364Z,33
2022-12-17T05:44:22.006Z,36
2022-12-17T05:46:52.871Z,38
2022-12-17T05:49:24.323Z,35
2022-12-17T05:51:56.856Z,37
2022-12-17T05:54:27.569Z,36
2022-12-17T05:56:57.784Z,44
2022-12-17T05:59:28.839Z,38
2022-12-17T06:02:00.229Z,40
2022-12-17T06:04:31.158Z,46
2022-12-17T06:07:01.575Z,41
2022-12-17T06:09:33.142Z,40
2022-12-17T06:12:03.880Z,40
2022-12-17T06:14:34.746Z,41
2022-12-17T06:17:06.222Z,41
2022-12-17T06:19:37.002Z,38
2022-12-17T06:22:09.160Z,33
2022-12-17T06:24:44.222Z,33
2022-12-17T06:27:11.026Z,32
2022-12-17T06:29:42.186Z,43
2022-12-17T06:32:12.907Z,33
2022-12-17T06:34:43.900Z,34
2022-12-17T06:37:14.704Z,38
2022-12-17T06:39:45.888Z,32
2022-12-17T06:42:17.021Z,40
2022-12-17T06:44:48.542Z,39
2022-12-17T06:47:20.024Z,42
2022-12-17T06:49:55.454Z,36
2022-12-17T06:52:23.542Z,54
2022-12-17T06:54:54.256Z,38
2022-12-17T06:57:25.210Z,43
2022-12-17T06:59:56.172Z,39
2022-12-17T07:02:30.851Z,44
2022-12-17T07:05:01.366Z,33
2022-12-17T07:07:32.385Z,32
2022-12-17T07:10:06.895Z,46
2022-12-17T07:12:34.996Z,32
2022-12-17T07:15:07.051Z,35
2022-12-17T07:17:37.757Z,38
2022-12-17T07:20:08.340Z,29
2022-12-17T07:22:38.544Z,39
2022-12-17T07:25:09.244Z,44
2022-12-17T07:27:41.928Z,48
2022-12-17T07:30:12.668Z,59
2022-12-17T07:32:44.985Z,63
2022-12-17T07:35:17.336Z,65
2022-12-17T07:37:49.102Z,60
2022-12-17T07:40:20.117Z,72
2022-12-17T07:42:51.207Z,69
2022-12-17T07:45:21.741Z,77
2022-12-17T07:47:52.780Z,68
2022-12-17T07:50:23.918Z,76
2022-12-17T07:52:54.317Z,72
2022-12-17T07:55:24.898Z,74
2022-12-17T07:57:55.348Z,76
2022-12-17T08:00:26.666Z,72
2022-12-17T08:02:57.260Z,74
2022-12-17T08:05:27.797Z,71
2022-12-17T08:08:01.693Z,64
2022-12-17T08:10:31.972Z,74
2022-12-17T08:13:02.631Z,66
2022-12-17T08:15:33.363Z,67
2022-12-17T08:18:04.054Z,68
2022-12-17T08:20:35.501Z,72
2022-12-17T08:23:06.189Z,68
2022-12-17T08:25:38.657Z,76
2022-12-17T08:28:33.778Z,75
2022-12-17T08:30:45.174Z,85
2022-12-17T08:33:17.225Z,76
2022-12-17T08:35:48.021Z,73
2022-12-17T08:38:18.447Z,81
2022-12-17T08:40:50.466Z,79
2022-12-17T08:43:22.872Z,77
2022-12-17T08:45:54.890Z,87
2022-12-17T08:48:26.698Z,82
2022-12-17T08:50:57.851Z,87
2022-12-17T08:53:33.335Z,83
2022-12-17T08:55:59.902Z,85
2022-12-17T08:58:30.120Z,88
2022-12-17T09:01:01.879Z,89
2022-12-17T09:03:32.604Z,81
2022-12-17T09:06:04.646Z,80
2022-12-17T09:08:36.146Z,88
2022-12-17T09:11:07.569Z,84
2022-12-17T09:13:39.913Z,87
2022-12-17T09:16:12.481Z,85
2022-12-17T09:18:44.979Z,86
2022-12-17T09:21:16.333Z,84
2022-12-17T09:23:47.530Z,88
2022-12-17T09:26:19.919Z,83
2022-12-17T09:28:51.468Z,80
2022-12-17T09:31:23.526Z,85
2022-12-17T09:33:58.436Z,87
2022-12-17T09:36:30.715Z,78
2022-12-17T09:39:02.253Z,85
2022-12-17T09:41:34.753Z,90
2022-12-17T09:44:05.971Z,88
2022-12-17T09:46:37.195Z,86
2022-12-17T09:49:08.296Z,81
2022-12-17T09:51:39.639Z,81
2022-12-17T09:54:14.706Z,74
2022-12-17T09:56:46.136Z,81
2022-12-17T09:59:18.145Z,82
2022-12-17T10:01:49.456Z,79
2022-12-17T10:04:21.945Z,76
2022-12-17T10:06:54.454Z,81
2022-12-17T10:09:25.884Z,86
2022-12-17T10:11:57.111Z,83
2022-12-17T10:14:28.049Z,84
2022-12-17T10:16:59.216Z,82
2022-12-17T10:19:31.994Z,76
2022-12-17T10:22:03.355Z,76
2022-12-17T10:24:35.240Z,84
2022-12-17T10:27:06.960Z,86
2022-12-17T10:29:41.252Z,77
2022-12-17T10:32:09.157Z,80
2022-12-17T10:34:40.622Z,74
2022-12-17T10:37:12.001Z,89
2022-12-17T10:39:43.947Z,82
2022-12-17T10:42:14.237Z,86
2022-12-17T10:44:45.865Z,88
2022-12-17T10:47:17.262Z,93
2022-12-17T10:49:48.128Z,90
2022-12-17T10:52:18.786Z,84
2022-12-17T10:54:50.060Z,79
2022-12-17T10:57:21.236Z,84
2022-12-17T10:59:52.045Z,78
2022-12-17T11:02:24.195Z,75
2022-12-17T11:04:57.254Z,78
2022-12-17T11:07:28.765Z,85
2022-12-17T11:10:02.457Z,78
2022-12-17T11:12:31.360Z,83
2022-12-17T11:15:02.840Z,85
2022-12-17T11:17:33.598Z,79
2022-12-17T11:20:04.356Z,84
2022-12-17T11:22:36.215Z,82
2022-12-17T11:25:07.170Z,86
2022-12-17T11:27:37.839Z,92
2022-12-17T11:30:12.629Z,75
2022-12-17T11:32:44.179Z,85
2022-12-17T11:35:16.748Z,92
2022-12-17T11:37:48.957Z,80
2022-12-17T11:40:20.300Z,80
2022-12-17T11:42:51.344Z,92
2022-12-17T11:45:23.019Z,80
2022-12-17T11:47:58.962Z,81
2022-12-17T11:50:25.692Z,81
2022-12-17T11:52:56.512Z,83
2022-12-17T11:55:28.435Z,80
2022-12-17T11:57:58.115Z,99
2022-12-17T12:00:30.190Z,89
2022-12-17T12:03:01.553Z,83
2022-12-17T12:05:32.601Z,82
2022-12-17T12:08:03.590Z,80
2022-12-17T12:10:35.797Z,80
2022-12-17T12:13:06.887Z,80
2022-12-17T12:15:39.118Z,87
2022-12-17T12:18:09.745Z,84
2022-12-17T12:20:41.462Z,85
2022-12-17T12:23:12.532Z,87
2022-12-17T12:25:42.411Z,85
2022-12-17T12:28:13.730Z,81
2022-12-17T12:30:47.543Z,81
2022-12-17T12:33:18.755Z,84
2022-12-17T12:35:49.733Z,79
2022-12-17T12:38:20.555Z,84
2022-12-17T12:40:51.250Z,86
2022-12-17T12:43:23.783Z,82
2022-12-17T12:45:53.324Z,86
2022-12-17T12:48:24.944Z,80
2022-12-17T12:50:55.901Z,87
2022-12-17T12:53:27.479Z,85
2022-12-17T12:55:59.339Z,88
2022-12-17T12:58:30.549Z,80
2022-12-17T13:01:02.529Z,91
2022-12-17T13:03:39.307Z,88
2022-12-17T13:06:06.462Z,87
2022-12-17T13:08:38.154Z,85
2022-12-17T13:11:10.351Z,89
2022-12-17T13:13:42.709Z,85
2022-12-17T13:16:14.233Z,84
2022-12-17T13:18:45.760Z,85
2022-12-17T13:21:16.516Z,80
2022-12-17T13:23:49.013Z,81
2022-12-17T13:26:20.326Z,84
2022-12-17T13:28:51.750Z,80
2022-12-17T13:31:22.743Z,85
2022-12-17T13:33:53.915Z,93
2022-12-17T13:36:25.510Z,82
2022-12-17T13:38:56.733Z,86
2022-12-17T13:41:29.291Z,87
2022-12-17T13:44:00.319Z,91
